Time;durP1;ratioP1;P1;durP2;ratioP2;P2;SDS_P1;SDS_P2;PMS_P1;PMS_P2;Temp;Humidity;BMP_temperature;BMP_pressure;BME280_temperature;BME280_humidity;BME280_pressure;Samples;Min_cycle;Max_cycle;Signal;HPM_P1;HPM_P2
2021/08/05 00:01:21;;;;;;;3.65;2.95;;;;;;;21.34;53.16;99430.41;6072377;23;20369;-83
2021/08/05 00:03:57;;;;;;;3.97;3.25;;;;;;;21.32;53.59;99424.41;6071634;23;20030;-83
2021/08/05 00:06:25;;;;;;;4.32;3.15;;;;;;;21.34;52.81;99422.38;6096739;23;20105;-83
2021/08/05 00:09:07;;;;;;;3.25;2.80;;;;;;;21.27;53.23;99420.53;6074016;23;20105;-83
2021/08/05 00:11:34;;;;;;;3.88;3.08;;;;;;;21.31;53.04;99424.56;6074091;23;20100;-83
2021/08/05 00:14:14;;;;;;;3.58;3.17;;;;;;;21.25;53.54;99417.16;6073781;23;20106;-83
2021/08/05 00:16:41;;;;;;;3.05;2.75;;;;;;;21.28;53.00;99425.72;6074102;23;20022;-83
2021/08/05 00:19:08;;;;;;;4.07;3.03;;;;;;;21.26;53.25;99421.56;6073907;23;20025;-83
2021/08/05 00:21:59;;;;;;;5.55;3.22;;;;;;;21.19;53.66;99421.34;6073930;23;20024;-83
2021/08/05 00:24:25;;;;;;;3.85;3.05;;;;;;;21.22;53.38;99424.53;6074084;23;20097;-83
2021/08/05 00:26:52;;;;;;;4.07;3.13;;;;;;;21.20;53.67;99415.84;6073815;23;20097;-83
2021/08/05 00:29:43;;;;;;;4.65;3.25;;;;;;;21.14;53.74;99411.16;6097872;23;20350;-83
2021/08/05 00:32:10;;;;;;;3.30;3.00;;;;;;;21.17;53.40;99409.97;6074192;23;20023;-84
2021/08/05 00:34:36;;;;;;;5.03;3.25;;;;;;;21.15;53.83;99407.47;6073526;23;20023;-84
2021/08/05 00:37:27;;;;;;;4.53;3.20;;;;;;;21.06;54.30;99406.63;6073664;23;20110;-83
2021/08/05 00:39:54;;;;;;;3.50;3.05;;;;;;;21.11;54.05;99406.13;6073676;23;20093;-83
2021/08/05 00:42:37;;;;;;;3.63;3.25;;;;;;;21.05;54.28;99406.78;6073559;23;20101;-83
2021/08/05 00:45:04;;;;;;;3.80;3.30;;;;;;;21.07;54.13;99399.41;6073482;23;20061;-83
2021/08/05 00:47:46;;;;;;;3.83;3.38;;;;;;;21.02;54.69;99404.44;6073476;23;20062;-83
2021/08/05 00:50:14;;;;;;;3.75;3.08;;;;;;;21.04;53.93;99397.91;6083628;23;20026;-83
2021/08/05 00:52:55;;;;;;;4.03;2.92;;;;;;;20.98;54.42;99401.25;6073915;23;20080;-83
2021/08/05 00:55:22;;;;;;;5.43;3.35;;;;;;;21.00;54.05;99398.44;6073406;23;20062;-83
2021/08/05 00:58:07;;;;;;;4.80;3.53;;;;;;;20.92;54.95;99407.25;6097514;23;20084;-83
2021/08/05 01:00:35;;;;;;;4.78;3.33;;;;;;;20.93;54.46;99406.28;6097734;23;20097;-83
2021/08/05 01:03:40;;;;;;;3.45;3.00;;;;;;;20.85;54.65;99407.03;6073630;23;20074;-83
2021/08/05 01:09:29;;;;;;;3.42;3.13;;;;;;;20.82;55.04;99413.56;6098580;23;20065;-83
2021/08/05 01:16:09;;;;;;;3.67;2.90;;;;;;;20.72;54.63;99414.69;6098501;23;20385;-83
2021/08/05 01:18:37;;;;;;;3.47;3.17;;;;;;;20.73;54.71;99413.69;6096981;23;20029;-83
2021/08/05 01:21:23;;;;;;;3.58;3.28;;;;;;;20.64;55.52;99402.97;6073577;23;20403;-83
2021/08/05 01:23:57;;;;;;;4.50;3.58;;;;;;;20.64;55.44;99405.63;6072997;23;20101;-83
2021/08/05 01:26:51;;;;;;;3.47;3.10;;;;;;;20.59;55.15;99402.63;6073268;23;20112;-83
2021/08/05 01:32:48;;;;;;;3.28;2.97;;;;;;;20.56;54.69;99394.94;6098545;23;20026;-83
2021/08/05 01:35:48;;;;;;;3.47;3.17;;;;;;;20.46;55.54;99389.72;6073312;23;20109;-83
2021/08/05 01:38:17;;;;;;;4.47;3.78;;;;;;;20.48;55.12;99384.22;6073553;23;20633;-83
2021/08/05 01:40:48;;;;;;;4.78;3.88;;;;;;;20.41;55.71;99379.50;6073504;23;20379;-83
2021/08/05 01:43:16;;;;;;;3.95;3.53;;;;;;;20.39;55.30;99376.16;6073764;23;20026;-81
2021/08/05 01:49:03;;;;;;;4.78;4.10;;;;;;;20.34;55.50;99362.44;6098599;23;20101;-81
2021/08/05 01:51:48;;;;;;;5.03;4.47;;;;;;;20.27;55.97;99372.09;6073042;23;20022;-81
2021/08/05 01:54:15;;;;;;;4.97;4.50;;;;;;;20.28;55.50;99369.25;6073189;23;20117;-81
2021/08/05 01:57:04;;;;;;;5.63;4.78;;;;;;;20.21;56.12;99364.69;6097159;23;20880;-81
2021/08/05 01:59:31;;;;;;;5.85;5.18;;;;;;;20.23;55.77;99373.41;6073051;23;20101;-81
2021/08/05 02:02:35;;;;;;;5.18;4.68;;;;;;;20.14;56.67;99369.84;6096678;23;20022;-81
2021/08/05 02:05:51;;;;;;;7.07;4.90;;;;;;;20.13;56.52;99366.34;6072854;23;20061;-81
2021/08/05 02:08:22;;;;;;;5.60;4.72;;;;;;;20.16;56.61;99370.53;6096703;23;20105;-81
2021/08/05 02:11:16;;;;;;;7.22;5.13;;;;;;;20.10;56.76;99361.31;6072661;23;20097;-81
2021/08/05 02:13:51;;;;;;;5.50;5.00;;;;;;;20.10;56.85;99364.00;6073321;23;20066;-81
2021/08/05 02:16:28;;;;;;;7.72;5.47;;;;;;;20.10;56.76;99360.47;6075183;23;20037;-81
2021/08/05 02:19:14;;;;;;;7.28;5.72;;;;;;;20.03;57.09;99355.78;6099189;23;20366;-82
2021/08/05 02:21:54;;;;;;;7.57;5.22;;;;;;;20.06;56.85;99351.94;6099554;23;20049;-81
2021/08/05 02:24:46;;;;;;;8.77;5.70;;;;;;;20.00;57.18;99352.59;6074319;23;20022;-81
2021/08/05 02:27:19;;;;;;;6.03;5.43;;;;;;;20.02;56.67;99354.13;6072952;23;20330;-81
2021/08/05 02:30:27;;;;;;;5.25;4.70;;;;;;;19.96;57.29;99353.88;6072517;23;20101;-81
2021/08/05 02:33:22;;;;;;;5.65;4.90;;;;;;;19.96;57.32;99356.56;6096916;23;20022;-81
2021/08/05 02:35:48;;;;;;;5.65;4.50;;;;;;;19.98;56.60;99350.09;6072415;23;20034;-81
2021/08/05 02:38:15;;;;;;;4.53;4.13;;;;;;;19.97;57.00;99353.72;6072721;23;20461;-81
2021/08/05 02:41:00;;;;;;;5.65;4.90;;;;;;;19.90;57.56;99352.69;6072611;23;20101;-81
2021/08/05 02:43:40;;;;;;;5.80;5.28;;;;;;;19.88;57.94;99347.50;6072490;23;20101;-81
2021/08/05 02:46:07;;;;;;;5.25;4.75;;;;;;;19.91;57.44;99349.84;6072382;23;20026;-81
2021/08/05 02:48:35;;;;;;;5.75;5.03;;;;;;;19.89;57.63;99349.16;6096370;23;20026;-81
2021/08/05 02:51:23;;;;;;;8.15;5.65;;;;;;;19.83;58.29;99344.47;6072789;23;20023;-81
2021/08/05 02:53:51;;;;;;;5.65;5.03;;;;;;;19.87;57.86;99348.50;6072405;23;20101;-81
2021/08/05 02:56:41;;;;;;;6.47;5.00;;;;;;;19.82;58.06;99349.97;6097632;23;20101;-81
2021/08/05 02:59:08;;;;;;;5.68;5.18;;;;;;;19.85;57.65;99353.13;6072439;23;20098;-82
2021/08/05 03:01:53;;;;;;;6.05;5.45;;;;;;;19.79;58.49;99351.13;6072460;23;20097;-82
2021/08/05 03:04:30;;;;;;;7.00;5.72;;;;;;;19.79;58.90;99353.78;6072070;23;20028;-81
2021/08/05 03:06:57;;;;;;;6.82;6.13;;;;;;;19.81;57.78;99345.63;6072346;23;20061;-81
2021/08/05 03:09:23;;;;;;;7.15;6.45;;;;;;;19.78;58.04;99350.25;6072101;23;20093;-81
2021/08/05 03:12:12;;;;;;;7.70;6.88;;;;;;;19.72;59.01;99340.22;6096507;23;20497;-81
2021/08/05 03:14:39;;;;;;;8.93;8.02;;;;;;;19.77;58.13;99345.06;6072197;23;20018;-81
2021/08/05 03:17:23;;;;;;;10.50;8.82;;;;;;;19.70;58.96;99333.38;6072754;23;20401;-81
2021/08/05 03:19:50;;;;;;;10.48;9.35;;;;;;;19.73;58.23;99339.22;6097918;23;20113;-81
2021/08/05 03:22:32;;;;;;;10.82;9.32;;;;;;;19.67;59.35;99339.88;6072763;23;20037;-81
2021/08/05 03:24:59;;;;;;;12.30;9.10;;;;;;;19.69;58.28;99327.19;6072084;23;20026;-81
2021/08/05 03:27:36;;;;;;;10.82;9.50;;;;;;;19.63;59.30;99328.66;6072861;23;20022;-81
2021/08/05 03:30:05;;;;;;;10.38;9.25;;;;;;;19.64;58.89;99319.66;6097123;23;20018;-81
2021/08/05 03:32:31;;;;;;;11.65;10.40;;;;;;;19.62;58.64;99320.81;6072168;23;20019;-81
2021/08/05 03:34:58;;;;;;;11.05;10.00;;;;;;;19.59;58.65;99305.91;6072041;23;20105;-81
2021/08/05 03:37:59;;;;;;;11.60;9.60;;;;;;;19.53;59.48;99311.91;6072061;23;20020;-81
2021/08/05 03:40:26;;;;;;;11.60;10.18;;;;;;;19.57;58.77;99302.59;6071815;23;20084;-81
2021/08/05 03:43:08;;;;;;;10.52;9.07;;;;;;;19.51;59.81;99311.25;6097294;23;20026;-81
2021/08/05 03:45:35;;;;;;;9.73;8.80;;;;;;;19.54;59.12;99308.22;6072260;23;20427;-81
2021/08/05 03:48:05;;;;;;;10.15;9.23;;;;;;;19.53;59.90;99309.22;6095918;23;20030;-81
2021/08/05 03:50:31;;;;;;;11.05;9.07;;;;;;;19.55;59.19;99312.56;6097593;23;20044;-81
2021/08/05 03:53:28;;;;;;;11.20;9.63;;;;;;;19.49;59.82;99310.53;6072428;23;20097;-81
2021/08/05 03:55:55;;;;;;;10.80;9.15;;;;;;;19.52;59.37;99311.06;6071982;23;20093;-81
2021/08/05 03:58:38;;;;;;;10.95;9.73;;;;;;;19.46;59.95;99306.34;6072056;23;20029;-81
2021/08/05 04:01:05;;;;;;;10.50;9.43;;;;;;;19.51;59.32;99306.72;6072402;23;20468;-81
2021/08/05 04:03:38;;;;;;;10.90;9.82;;;;;;;19.48;60.40;99308.88;6072498;23;20409;-81
2021/08/05 04:06:05;;;;;;;11.10;9.85;;;;;;;19.50;59.79;99313.06;6072005;23;20369;-81
2021/08/05 04:08:57;;;;;;;11.43;10.30;;;;;;;19.46;60.41;99300.16;6072164;23;20405;-81
2021/08/05 04:11:23;;;;;;;13.02;11.05;;;;;;;19.52;59.69;99307.56;6072252;23;20057;-81
2021/08/05 04:13:53;;;;;;;12.30;11.10;;;;;;;19.50;60.21;99298.88;6071959;23;20026;-81
2021/08/05 04:16:20;;;;;;;12.23;10.95;;;;;;;19.52;59.56;99294.22;6072095;23;20109;-81
2021/08/05 04:18:47;;;;;;;11.80;10.63;;;;;;;19.52;59.97;99302.22;6071857;23;20018;-81
2021/08/05 04:21:16;;;;;;;11.25;9.95;;;;;;;19.50;60.58;99296.19;6071927;23;20094;-81
2021/08/05 04:23:51;;;;;;;11.23;10.02;;;;;;;19.47;60.59;99307.22;6072114;23;20396;-81
2021/08/05 04:26:17;;;;;;;10.40;9.30;;;;;;;19.47;59.96;99308.03;6072307;23;20093;-81
2021/08/05 04:28:44;;;;;;;10.10;9.02;;;;;;;19.47;59.61;99307.22;6096017;23;20156;-81
2021/08/05 04:31:31;;;;;;;10.95;9.50;;;;;;;19.39;60.64;99310.63;6072433;23;20014;-81
2021/08/05 04:33:58;;;;;;;10.95;9.73;;;;;;;19.43;60.06;99311.19;6071874;23;20023;-81
2021/08/05 04:36:36;;;;;;;11.52;10.27;;;;;;;19.37;60.50;99320.63;6071860;23;20101;-81
2021/08/05 04:39:02;;;;;;;10.57;9.20;;;;;;;19.39;60.17;99321.31;6071735;23;20025;-81
2021/08/05 04:42:19;;;;;;;10.55;9.55;;;;;;;19.34;60.80;99321.78;6072273;23;20102;-81
2021/08/05 04:44:54;;;;;;;11.60;9.57;;;;;;;19.37;61.16;99320.63;6095500;23;20101;-81
2021/08/05 04:47:21;;;;;;;11.93;10.27;;;;;;;19.40;60.18;99318.50;6071801;23;20097;-81
2021/08/05 04:49:47;;;;;;;12.40;9.85;;;;;;;19.42;60.36;99314.81;6072139;23;20023;-81
2021/08/05 04:52:16;;;;;;;10.52;9.43;;;;;;;19.41;60.98;99311.34;6072859;23;20517;-81
2021/08/05 04:54:43;;;;;;;10.60;9.48;;;;;;;19.45;60.42;99314.50;6073389;23;20109;-81
2021/08/05 04:57:17;;;;;;;10.40;9.27;;;;;;;19.44;60.96;99307.50;6074378;23;20026;-81
2021/08/05 04:59:44;;;;;;;9.48;8.45;;;;;;;19.46;60.41;99298.34;6073626;23;20114;-81
2021/08/05 05:02:26;;;;;;;10.50;9.40;;;;;;;19.41;61.20;99292.66;6073502;23;20054;-81
2021/08/05 05:05:15;;;;;;;11.15;9.15;;;;;;;19.40;61.11;99302.47;6097232;23;20030;-81
2021/08/05 05:07:42;;;;;;;11.00;9.88;;;;;;;19.46;60.45;99297.50;6073459;23;20097;-81
2021/08/05 05:10:10;;;;;;;11.38;10.18;;;;;;;19.46;60.48;99294.84;6073545;23;20027;-81
2021/08/05 05:13:25;;;;;;;11.13;9.93;;;;;;;19.40;60.94;99283.78;6073350;23;20089;-81
2021/08/05 05:15:52;;;;;;;10.48;9.40;;;;;;;19.47;60.24;99280.50;6097497;23;20022;-81
2021/08/05 05:18:34;;;;;;;11.75;10.30;;;;;;;19.43;61.02;99287.97;6073779;23;20034;-81
2021/08/05 05:21:01;;;;;;;11.43;10.23;;;;;;;19.47;60.33;99280.50;6073259;23;20018;-81
2021/08/05 05:26:53;;;;;;;11.82;9.73;;;;;;;19.46;60.23;99281.47;6098912;23;20086;-81
2021/08/05 05:29:20;;;;;;;11.73;10.52;;;;;;;19.46;60.24;99278.81;6073707;23;20349;-81
2021/08/05 05:31:51;;;;;;;11.73;10.40;;;;;;;19.42;61.17;99283.63;6073122;23;20022;-81
2021/08/05 05:34:18;;;;;;;11.27;10.13;;;;;;;19.43;60.49;99279.16;6073348;23;20033;-81
2021/08/05 05:36:47;;;;;;;13.43;11.45;;;;;;;19.42;61.12;99278.31;6073469;23;20495;-81
2021/08/05 05:39:13;;;;;;;13.60;11.27;;;;;;;19.42;60.93;99274.78;6073271;23;20019;-81
2021/08/05 05:41:47;;;;;;;12.27;10.98;;;;;;;19.40;61.76;99270.44;6072995;23;20030;-82
2021/08/05 05:44:14;;;;;;;12.63;11.05;;;;;;;19.46;60.97;99274.31;6072728;23;20089;-81
2021/08/05 05:46:57;;;;;;;12.10;10.90;;;;;;;19.46;61.80;99278.81;6073120;23;20019;-81
2021/08/05 05:49:24;;;;;;;11.82;10.63;;;;;;;19.54;60.99;99281.53;6073471;23;20395;-81
2021/08/05 05:51:50;;;;;;;11.88;10.68;;;;;;;19.57;61.19;99270.56;6073016;23;20101;-82
2021/08/05 05:54:42;;;;;;;11.45;10.25;;;;;;;19.57;61.85;99267.88;6072896;23;20062;-82
2021/08/05 05:57:09;;;;;;;11.57;10.23;;;;;;;19.67;61.14;99268.59;6073049;23;20109;-82
2021/08/05 05:59:36;;;;;;;11.15;10.05;;;;;;;19.72;61.23;99278.81;6073383;23;20579;-82
2021/08/05 06:02:22;;;;;;;11.63;9.90;;;;;;;19.73;61.37;99272.47;6073377;23;20345;-82
2021/08/05 06:05:00;;;;;;;10.55;9.45;;;;;;;19.79;61.80;99279.84;6072496;23;20033;-82
2021/08/05 06:07:27;;;;;;;10.15;8.95;;;;;;;19.88;60.90;99272.72;6072878;23;20033;-83
2021/08/05 06:10:02;;;;;;;10.25;9.20;;;;;;;19.89;61.21;99277.03;6073315;23;20101;-83
2021/08/05 06:12:29;;;;;;;10.88;9.18;;;;;;;19.97;60.40;99275.41;6072602;23;20097;-83
2021/08/05 06:15:19;;;;;;;11.30;8.75;;;;;;;19.97;61.07;99280.75;6096076;23;20109;-83
2021/08/05 06:17:46;;;;;;;8.57;7.63;;;;;;;20.05;60.37;99273.66;6072889;23;20093;-83
2021/08/05 06:20:28;;;;;;;8.63;7.63;;;;;;;20.06;60.59;99279.81;6073611;23;20338;-83
2021/08/05 06:22:55;;;;;;;9.70;8.27;;;;;;;20.13;60.03;99283.53;6072612;23;20061;-83
2021/08/05 06:25:24;;;;;;;9.95;8.13;;;;;;;20.16;60.32;99277.88;6096356;23;20097;-83
2021/08/05 06:27:51;;;;;;;10.40;8.40;;;;;;;20.21;60.19;99285.38;6097801;23;20030;-83
2021/08/05 06:30:18;;;;;;;10.70;8.32;;;;;;;20.26;60.18;99279.56;6096178;23;20026;-83
2021/08/05 06:32:52;;;;;;;7.72;6.93;;;;;;;20.27;60.55;99283.91;6072422;23;20109;-83
2021/08/05 06:35:19;;;;;;;8.77;7.82;;;;;;;20.34;60.19;99276.06;6072397;23;20101;-83
2021/08/05 06:37:53;;;;;;;9.65;7.40;;;;;;;20.36;60.67;99282.91;6097741;23;20026;-83
2021/08/05 06:40:20;;;;;;;9.30;6.85;;;;;;;20.47;60.39;99278.25;6072401;23;20114;-83
2021/08/05 06:42:47;;;;;;;7.82;7.00;;;;;;;20.52;60.28;99282.13;6072833;23;20018;-83
2021/08/05 06:45:22;;;;;;;9.48;8.48;;;;;;;20.59;60.81;99287.63;6072578;23;20054;-83
2021/08/05 06:47:50;;;;;;;8.40;7.60;;;;;;;20.68;60.52;99283.16;6072509;23;20096;-83
2021/08/05 06:50:18;;;;;;;8.48;7.68;;;;;;;20.76;60.67;99285.84;6096516;23;20465;-83
2021/08/05 06:55:55;;;;;;;10.00;8.95;;;;;;;20.95;60.34;99290.06;6097385;23;20019;-83
2021/08/05 06:58:22;;;;;;;9.32;8.23;;;;;;;21.02;60.85;99284.03;6072396;23;20022;-84
2021/08/05 07:00:50;;;;;;;10.45;8.48;;;;;;;21.11;60.28;99291.06;6095989;23;20098;-83
2021/08/05 07:03:43;;;;;;;10.57;7.53;;;;;;;21.16;60.14;99295.91;6072430;23;20026;-83
2021/08/05 07:06:09;;;;;;;8.38;7.50;;;;;;;21.29;60.17;99296.22;6072143;23;20101;-83
2021/08/05 07:08:39;;;;;;;9.00;8.10;;;;;;;21.36;59.89;99293.72;6072898;23;20375;-83
2021/08/05 07:11:06;;;;;;;9.48;7.25;;;;;;;21.45;59.79;99290.00;6072189;23;20101;-83
2021/08/05 07:13:32;;;;;;;7.93;7.13;;;;;;;21.54;59.65;99298.03;6072339;23;20110;-83
2021/08/05 07:16:25;;;;;;;10.02;8.82;;;;;;;21.58;59.69;99289.50;6071612;23;20029;-83
2021/08/05 07:18:52;;;;;;;8.43;7.30;;;;;;;21.72;59.18;99289.78;6072122;23;20081;-83
2021/08/05 07:21:21;;;;;;;9.02;8.13;;;;;;;21.79;59.15;99285.44;6072017;23;20753;-83
2021/08/05 07:23:47;;;;;;;9.23;8.20;;;;;;;21.87;58.99;99293.44;6095877;23;20109;-83
2021/08/05 07:26:14;;;;;;;9.23;8.32;;;;;;;21.96;59.46;99290.72;6097347;23;20022;-84
2021/08/05 07:28:50;;;;;;;10.30;7.53;;;;;;;22.01;58.95;99291.03;6097655;23;20167;-83
2021/08/05 07:31:16;;;;;;;7.00;6.30;;;;;;;22.13;58.68;99288.84;6072241;23;20109;-83
2021/08/05 07:33:54;;;;;;;8.98;7.93;;;;;;;22.18;58.34;99285.63;6095770;23;20022;-83
2021/08/05 07:39:44;;;;;;;7.90;7.10;;;;;;;22.36;57.91;99282.69;6097190;23;20106;-83
2021/08/05 07:42:18;;;;;;;7.30;6.43;;;;;;;22.40;57.92;99286.69;6072038;23;20057;-83
2021/08/05 07:44:46;;;;;;;8.00;7.03;;;;;;;22.49;57.35;99292.81;6072195;23;20791;-83
2021/08/05 07:47:13;;;;;;;7.70;6.88;;;;;;;22.56;56.82;99291.13;6072368;23;20525;-83
2021/08/05 07:53:39;;;;;;;10.05;6.65;;;;;;;22.63;56.94;99280.53;6097293;23;20395;-83
2021/08/05 07:56:06;;;;;;;8.48;7.63;;;;;;;22.69;56.10;99274.44;6071931;23;20097;-84
2021/08/05 07:58:42;;;;;;;8.48;6.78;;;;;;;22.67;55.59;99279.16;6071891;23;20097;-83
2021/08/05 08:01:08;;;;;;;8.27;7.20;;;;;;;22.70;55.97;99270.75;6072006;23;20015;-84
2021/08/05 08:03:36;;;;;;;8.68;6.72;;;;;;;22.70;56.01;99269.91;6097090;23;20030;-83
2021/08/05 08:06:13;;;;;;;8.73;6.57;;;;;;;22.67;56.63;99271.09;6097261;23;20026;-83
2021/08/05 08:08:40;;;;;;;8.43;7.55;;;;;;;22.73;55.51;99274.94;6096049;23;20093;-83
2021/08/05 08:11:07;;;;;;;9.15;7.45;;;;;;;22.76;55.59;99274.53;6095555;23;20101;-83
2021/08/05 08:13:34;;;;;;;7.72;7.03;;;;;;;22.80;55.43;99277.72;6072260;23;20498;-82
2021/08/05 08:16:00;;;;;;;10.60;8.23;;;;;;;22.85;55.60;99269.97;6097052;23;20027;-83
2021/08/05 08:18:54;;;;;;;8.38;7.03;;;;;;;22.87;55.49;99267.91;6097193;23;20029;-83
2021/08/05 08:21:21;;;;;;;12.65;7.85;;;;;;;22.98;55.17;99272.03;6071841;23;20101;-83
2021/08/05 08:23:51;;;;;;;10.23;7.95;;;;;;;23.00;55.03;99270.88;6071593;23;20106;-83
2021/08/05 08:26:18;;;;;;;9.02;7.18;;;;;;;23.08;55.65;99267.25;6071681;23;20026;-83
2021/08/05 08:28:44;;;;;;;8.73;7.05;;;;;;;23.14;55.34;99271.06;6097654;23;20105;-83
2021/08/05 08:31:11;;;;;;;9.23;7.53;;;;;;;23.19;55.28;99262.47;6098087;23;20198;-83
2021/08/05 08:33:55;;;;;;;8.80;7.90;;;;;;;23.20;54.95;99264.97;6097383;23;20027;-83
2021/08/05 08:36:22;;;;;;;10.88;8.43;;;;;;;23.29;54.73;99266.56;6074039;23;20034;-83
2021/08/05 08:38:58;;;;;;;9.80;8.63;;;;;;;23.34;54.34;99267.88;6074155;23;20429;-83
2021/08/05 08:41:26;;;;;;;8.68;7.88;;;;;;;23.40;54.63;99259.94;6073528;23;20034;-83
2021/08/05 08:44:17;;;;;;;8.55;7.35;;;;;;;23.42;54.66;99262.44;6073813;23;20413;-84
2021/08/05 08:46:46;;;;;;;8.75;7.55;;;;;;;23.53;54.27;99270.03;6073824;23;20438;-83
2021/08/05 08:49:15;;;;;;;9.75;8.52;;;;;;;23.59;54.84;99259.56;6073688;23;20028;-83
2021/08/05 08:51:50;;;;;;;9.85;8.10;;;;;;;23.64;54.76;99263.38;6073422;23;20105;-83
2021/08/05 08:54:17;;;;;;;10.52;7.82;;;;;;;23.73;54.81;99261.41;6073286;23;20036;-83
2021/08/05 08:56:44;;;;;;;9.23;7.43;;;;;;;23.81;55.33;99260.50;6099077;23;20060;-83
2021/08/05 08:59:52;;;;;;;7.72;6.82;;;;;;;23.84;54.99;99257.41;6097298;23;20025;-83
2021/08/05 09:02:18;;;;;;;7.63;6.93;;;;;;;23.97;54.55;99254.09;6097278;23;20097;-83
2021/08/05 09:04:46;;;;;;;7.15;6.47;;;;;;;24.03;54.73;99247.94;6073712;23;20318;-83
2021/08/05 09:07:51;;;;;;;7.60;6.45;;;;;;;24.05;54.66;99248.59;6073393;23;20061;-83
2021/08/05 09:10:19;;;;;;;7.57;5.45;;;;;;;24.21;54.49;99252.09;6097275;23;20093;-84
2021/08/05 09:13:16;;;;;;;6.47;5.88;;;;;;;24.24;54.09;99251.72;6073262;23;20101;-84
2021/08/05 09:15:45;;;;;;;5.53;4.90;;;;;;;24.37;54.15;99250.22;6073686;23;20101;-84
2021/08/05 09:18:35;;;;;;;6.00;5.40;;;;;;;24.42;54.18;99248.63;6073262;23;20081;-84
2021/08/05 09:21:05;;;;;;;5.93;4.97;;;;;;;24.54;53.52;99251.63;6074130;23;20361;-84
2021/08/05 09:24:06;;;;;;;4.97;4.35;;;;;;;24.59;54.05;99249.19;6097185;23;20065;-83
2021/08/05 09:26:33;;;;;;;5.57;4.93;;;;;;;24.72;53.63;99244.97;6073694;23;20101;-84
2021/08/05 09:29:24;;;;;;;6.55;5.53;;;;;;;24.76;53.98;99240.88;6097636;23;20105;-84
2021/08/05 09:31:51;;;;;;;7.00;5.05;;;;;;;24.88;52.77;99237.66;6073433;23;20502;-84
2021/08/05 09:34:22;;;;;;;6.75;4.93;;;;;;;24.92;52.46;99233.56;6096803;23;20057;-84
2021/08/05 09:37:16;;;;;;;5.30;4.03;;;;;;;24.95;52.74;99230.47;6073640;23;20353;-84
2021/08/05 09:39:46;;;;;;;5.30;4.80;;;;;;;25.06;53.32;99221.88;6073363;23;20018;-84
2021/08/05 09:42:15;;;;;;;4.97;4.47;;;;;;;25.17;53.90;99216.97;6073476;23;20398;-84
2021/08/05 09:45:10;;;;;;;5.70;4.53;;;;;;;25.26;53.40;99220.34;6073162;23;20062;-84
2021/08/05 09:47:44;;;;;;;8.43;4.72;;;;;;;25.42;52.04;99221.91;6073095;23;20083;-84
2021/08/05 09:50:12;;;;;;;5.43;3.95;;;;;;;25.54;51.57;99219.47;6073169;23;20026;-84
2021/08/05 09:52:43;;;;;;;5.03;4.53;;;;;;;25.60;51.16;99218.72;6073309;23;20345;-84
2021/08/05 09:58:41;;;;;;;4.60;4.13;;;;;;;25.78;50.67;99217.34;6098440;23;20116;-84
2021/08/05 10:05:18;;;;;;;6.22;4.10;;;;;;;25.82;50.29;99213.22;5981660;24;20020;-84
2021/08/05 10:08:08;;;;;;;5.88;4.47;;;;;;;25.84;50.80;99221.91;5981659;24;20107;-84
2021/08/05 10:10:52;;;;;;;4.90;4.07;;;;;;;25.85;49.76;99212.78;5981805;24;20103;-84
2021/08/05 10:13:28;;;;;;;6.40;4.22;;;;;;;25.88;49.77;99210.53;5958592;24;20052;-84
2021/08/05 10:15:55;;;;;;;6.45;4.22;;;;;;;25.90;49.75;99218.41;5981474;24;20035;-84
2021/08/05 10:18:31;;;;;;;5.90;3.92;;;;;;;25.85;49.63;99210.94;5981630;24;20046;-84
2021/08/05 10:24:39;;;;;;;6.15;4.03;;;;;;;25.76;49.60;99207.56;5981347;24;20443;-83
2021/08/05 10:27:08;;;;;;;5.40;3.42;;;;;;;25.79;49.08;99202.81;6072891;23;20510;-83
2021/08/05 10:29:54;;;;;;;6.75;4.38;;;;;;;25.70;49.32;99202.16;6073154;23;20076;-84
2021/08/05 10:32:22;;;;;;;4.60;3.42;;;;;;;25.76;49.25;99201.38;6072579;23;20023;-83
2021/08/05 10:38:13;;;;;;;4.75;3.80;;;;;;;25.77;49.30;99197.63;6098245;23;20450;-84
2021/08/05 10:40:40;;;;;;;6.00;4.20;;;;;;;25.78;48.81;99190.38;6072540;23;20065;-83
2021/08/05 10:43:32;;;;;;;5.22;4.05;;;;;;;25.73;49.09;99188.28;6096359;23;20097;-83
2021/08/05 10:45:59;;;;;;;5.00;4.50;;;;;;;25.81;48.36;99188.09;6072634;23;20493;-83
2021/08/05 10:48:42;;;;;;;3.97;3.58;;;;;;;25.83;49.11;99175.25;6072935;23;20029;-83
2021/08/05 10:51:11;;;;;;;8.25;4.40;;;;;;;25.97;48.65;99184.22;6072242;23;20025;-84
2021/08/05 10:53:43;;;;;;;4.70;4.22;;;;;;;26.05;47.54;99177.00;6072452;23;20026;-84
2021/08/05 10:56:30;;;;;;;5.05;3.63;;;;;;;26.12;48.32;99175.13;6072317;23;20063;-84
2021/08/05 10:59:00;;;;;;;4.43;3.42;;;;;;;26.24;48.24;99169.97;6072552;23;20513;-83
2021/08/05 11:05:08;;;;;;;4.80;3.80;;;;;;;26.55;48.58;99165.88;6097432;23;20073;-84
2021/08/05 11:08:11;;;;;;;3.90;3.60;;;;;;;26.66;47.70;99167.94;6072528;23;20025;-84
2021/08/05 11:10:38;;;;;;;5.38;4.10;;;;;;;26.87;47.72;99157.94;6072327;23;20099;-84
2021/08/05 11:13:45;;;;;;;5.65;3.38;;;;;;;26.93;47.22;99154.44;6072599;23;20093;-84
2021/08/05 11:16:12;;;;;;;5.40;3.22;;;;;;;27.06;46.69;99152.78;6096108;23;20037;-84
2021/08/05 11:18:39;;;;;;;8.30;4.18;;;;;;;27.08;46.72;99150.69;6097702;23;20030;-84
2021/08/05 11:21:43;;;;;;;3.50;3.05;;;;;;;27.04;46.73;99144.03;6072669;23;20030;-84
2021/08/05 11:24:09;;;;;;;4.18;2.63;;;;;;;27.18;47.30;99142.16;6071862;23;20101;-84
2021/08/05 11:29:48;;;;;;;7.05;3.63;;;;;;;27.63;48.57;99130.56;6097668;23;20394;-84
2021/08/05 11:32:21;;;;;;;3.85;3.30;;;;;;;28.03;49.22;99134.09;6072601;23;20454;-84
2021/08/05 11:35:07;;;;;;;4.07;3.28;;;;;;;28.48;47.58;99136.69;6096189;23;20030;-84
2021/08/05 11:37:35;;;;;;;7.82;3.20;;;;;;;28.91;45.58;99131.56;6072187;23;20065;-84
2021/08/05 11:40:06;;;;;;;4.05;3.63;;;;;;;29.20;43.56;99131.88;6072315;23;20102;-84
2021/08/05 11:43:19;;;;;;;3.45;3.15;;;;;;;29.37;43.91;99125.81;6072252;23;20093;-85
2021/08/05 11:46:24;;;;;;;3.33;3.03;;;;;;;29.49;43.90;99121.28;6096044;23;20113;-85
2021/08/05 11:48:50;;;;;;;5.07;3.13;;;;;;;29.59;42.88;99123.50;6096264;23;20517;-85
2021/08/05 11:55:03;;;;;;;3.30;3.00;;;;;;;29.50;42.06;99117.53;6097170;23;20107;-85
2021/08/05 11:58:09;;;;;;;4.57;2.80;;;;;;;29.30;42.72;99112.34;6072002;23;20037;-85
2021/08/05 12:00:40;;;;;;;3.97;3.03;;;;;;;29.20;41.92;99107.50;6095780;23;20058;-85
2021/08/05 12:03:13;;;;;;;5.03;3.63;;;;;;;29.02;41.28;99116.44;6075045;23;20019;-85
2021/08/05 12:06:00;;;;;;;4.43;3.58;;;;;;;28.79;42.56;99114.34;6075269;23;20397;-84
2021/08/05 12:08:27;;;;;;;4.45;3.38;;;;;;;28.65;41.60;99106.34;6075072;23;20082;-85
2021/08/05 12:10:57;;;;;;;3.85;3.47;;;;;;;28.46;42.64;99103.63;6100338;23;20040;-84
2021/08/05 12:13:40;;;;;;;4.53;3.50;;;;;;;28.31;44.86;99098.53;6099289;23;20443;-85
2021/08/05 12:16:07;;;;;;;4.40;3.70;;;;;;;28.48;44.49;99095.28;6075559;23;20033;-85
2021/08/05 12:18:39;;;;;;;3.90;3.60;;;;;;;28.80;45.33;99091.63;6075273;23;20041;-84
2021/08/05 12:21:32;;;;;;;4.80;4.40;;;;;;;29.32;44.71;99091.28;6075248;23;20101;-85
2021/08/05 12:23:59;;;;;;;4.07;3.58;;;;;;;29.98;44.21;99082.44;6074718;23;20325;-85
2021/08/05 12:26:37;;;;;;;4.00;3.70;;;;;;;30.60;41.83;99074.19;6074666;23;20029;-85
2021/08/05 12:29:11;;;;;;;4.82;3.08;;;;;;;31.14;41.23;99084.03;6075700;23;20704;-85
2021/08/05 12:31:37;;;;;;;3.58;2.67;;;;;;;31.53;41.60;99069.84;6075096;23;20399;-85
2021/08/05 12:34:22;;;;;;;4.85;2.80;;;;;;;31.87;40.88;99069.09;6074878;23;20030;-85
2021/08/05 12:36:49;;;;;;;3.10;2.80;;;;;;;32.33;41.07;99058.97;6075180;23;20097;-85
2021/08/05 12:39:23;;;;;;;4.57;2.92;;;;;;;32.84;40.34;99052.63;6075059;23;20030;-85
2021/08/05 12:41:53;;;;;;;3.08;2.60;;;;;;;33.36;39.14;99061.44;6069365;23;20097;-85
2021/08/05 12:44:41;;;;;;;3.47;2.88;;;;;;;33.81;38.02;99060.56;6074845;23;20065;-85
2021/08/05 12:47:09;;;;;;;2.55;2.35;;;;;;;34.14;37.01;99054.03;6074924;23;20097;-85
2021/08/05 12:49:38;;;;;;;2.60;2.40;;;;;;;34.35;36.28;99054.16;6074997;23;20022;-85
2021/08/05 12:52:06;;;;;;;2.75;2.47;;;;;;;34.52;35.27;99053.16;6074825;23;20113;-85
2021/08/05 12:54:33;;;;;;;2.78;2.45;;;;;;;34.59;33.97;99048.28;6074781;23;20028;-85
2021/08/05 12:57:19;;;;;;;3.78;2.35;;;;;;;34.41;33.91;99046.81;6075026;23;20034;-85
2021/08/05 12:59:50;;;;;;;3.95;2.50;;;;;;;34.21;33.55;99042.88;6098674;23;20101;-85